createdAt,value
2022-10-02T00:01:21.049Z,4.90
2022-10-02T00:08:05.003Z,4.40
2022-10-02T00:14:51.755Z,5.30
2022-10-02T00:21:33.544Z,5.30
2022-10-02T00:28:20.386Z,5.20
2022-10-02T00:35:15.793Z,5.70
2022-10-02T00:42:18.164Z,4.90
2022-10-02T01:16:32.052Z,5.50
2022-10-02T01:23:21.209Z,4.80
2022-10-02T01:30:04.791Z,5.30
2022-10-02T01:36:48.476Z,4.40
2022-10-02T01:43:31.905Z,4.50
2022-10-02T01:50:30.677Z,5.00
2022-10-02T01:57:20.381Z,5.30
2022-10-02T02:04:08.451Z,5.20
2022-10-02T02:11:03.815Z,5.20
2022-10-02T02:17:47.051Z,4.40
2022-10-02T02:24:30.596Z,4.70
2022-10-02T02:31:14.294Z,4.60
2022-10-02T02:37:57.664Z,4.80
2022-10-02T02:44:41.217Z,4.30
2022-10-02T02:51:29.797Z,4.00
2022-10-02T02:58:17.135Z,4.10
2022-10-02T03:05:00.876Z,4.10
2022-10-02T03:12:03.881Z,4.50
2022-10-02T03:18:53.680Z,5.10
2022-10-02T03:25:43.448Z,6.60
2022-10-02T03:32:27.743Z,6.50
2022-10-02T03:39:24.600Z,5.00
2022-10-02T03:46:09.568Z,3.90
2022-10-02T03:52:55.679Z,4.60
2022-10-02T03:59:39.364Z,4.30
2022-10-02T04:06:22.305Z,4.20
2022-10-02T04:13:11.120Z,4.20
2022-10-02T04:19:57.821Z,4.30
2022-10-02T04:26:40.953Z,4.40
2022-10-02T04:33:24.992Z,4.20
2022-10-02T04:40:25.260Z,3.80
2022-10-02T04:47:27.443Z,3.40
2022-10-02T04:54:28.946Z,2.80
2022-10-02T05:01:15.272Z,2.80
2022-10-02T05:07:56.719Z,3.00
2022-10-02T05:14:51.992Z,3.00
2022-10-02T05:21:53.453Z,3.00
2022-10-02T05:28:52.559Z,2.60
2022-10-02T05:56:21.446Z,2.90
2022-10-02T06:03:05.323Z,3.10
2022-10-02T06:09:57.378Z,3.00
2022-10-02T06:16:58.735Z,3.50
2022-10-02T06:23:55.177Z,3.10
2022-10-02T06:37:08.012Z,3.10
2022-10-02T07:36:09.799Z,3.10
2022-10-02T07:43:06.383Z,2.60
2022-10-02T07:50:06.466Z,2.80
2022-10-02T07:56:49.981Z,3.10
2022-10-02T08:03:35.893Z,2.80
2022-10-02T08:10:34.754Z,2.50
2022-10-02T08:17:18.178Z,2.40
2022-10-02T08:24:26.233Z,2.60
2022-10-02T08:31:11.358Z,2.10
2022-10-02T08:38:00.191Z,2.30
2022-10-02T08:44:46.659Z,2.60
2022-10-02T08:51:46.526Z,1.70
2022-10-02T09:46:19.437Z,1.50
2022-10-02T10:25:43.906Z,1.70
2022-10-02T10:44:52.432Z,1.50
2022-10-02T10:51:26.783Z,1.80
2022-10-02T10:58:03.435Z,3.30
2022-10-02T11:04:41.859Z,3.40
2022-10-02T11:22:47.261Z,1.80
2022-10-02T11:29:39.728Z,1.30
2022-10-02T11:36:21.238Z,1.50
2022-10-02T12:16:07.249Z,7.20
2022-10-02T13:43:49.925Z,1.40
2022-10-02T13:49:39.903Z,2.20
2022-10-02T14:14:51.589Z,1.80
2022-10-02T17:02:16.234Z,12.30
2022-10-02T17:08:38.710Z,13.60
2022-10-02T17:15:11.726Z,14.40
2022-10-02T17:21:11.180Z,16.10
2022-10-02T17:27:19.789Z,17.00
2022-10-02T17:34:01.357Z,17.90
2022-10-02T17:40:07.279Z,18.30
2022-10-02T17:46:25.436Z,20.20
2022-10-02T18:00:04.042Z,19.90
2022-10-02T18:24:31.213Z,5.90
2022-10-02T18:42:25.057Z,3.50
2022-10-02T18:48:28.057Z,4.30
2022-10-02T18:54:11.832Z,3.50
2022-10-02T19:00:10.083Z,3.10
2022-10-02T19:06:12.194Z,3.50
2022-10-02T19:12:13.116Z,2.90
2022-10-02T19:24:01.081Z,3.50
2022-10-02T19:29:59.003Z,2.70
2022-10-02T19:41:35.648Z,3.20
2022-10-02T19:48:01.737Z,2.70
2022-10-02T19:54:36.245Z,3.90
2022-10-02T20:00:59.323Z,4.10
2022-10-02T20:07:00.959Z,3.60
2022-10-02T20:13:27.826Z,3.60
2022-10-02T20:26:10.492Z,3.00
2022-10-02T20:32:54.050Z,3.50
2022-10-02T20:39:06.719Z,4.00
2022-10-02T20:44:56.202Z,4.10
2022-10-02T20:50:55.844Z,4.60
2022-10-02T21:02:37.353Z,3.50
2022-10-02T21:08:32.121Z,3.70
2022-10-02T21:14:54.941Z,3.80
2022-10-02T21:21:19.172Z,3.20
2022-10-02T21:28:12.651Z,3.30
2022-10-02T21:35:19.169Z,4.40
2022-10-02T21:55:19.521Z,4.00
2022-10-02T22:02:10.215Z,4.50
2022-10-02T22:09:00.055Z,4.30
2022-10-02T22:15:48.961Z,4.00
2022-10-02T22:22:34.448Z,4.70
2022-10-02T22:29:38.147Z,3.60
2022-10-02T22:36:25.796Z,3.60
2022-10-02T22:43:08.818Z,4.10
2022-10-02T22:56:16.271Z,3.10
2022-10-02T23:03:02.307Z,3.30
2022-10-02T23:10:00.183Z,3.00
2022-10-02T23:16:49.307Z,3.40
2022-10-02T23:23:49.071Z,3.40
2022-10-02T23:30:44.266Z,3.40
2022-10-02T23:37:42.000Z,3.50
2022-10-02T23:44:39.898Z,3.40
2022-10-02T23:51:25.913Z,3.20
2022-10-02T23:58:20.975Z,3.40
